createdAt,value
2018-06-12T00:02:12.869Z,19.10
2018-06-12T00:04:40.298Z,18.73
2018-06-12T00:07:07.750Z,19.13
2018-06-12T00:09:35.754Z,19.83
2018-06-12T00:12:04.050Z,18.47
2018-06-12T00:14:32.621Z,18.53
2018-06-12T00:17:00.709Z,17.90
2018-06-12T00:19:28.159Z,18.27
2018-06-12T00:21:56.303Z,14.80
2018-06-12T00:24:23.969Z,18.77
2018-06-12T00:26:51.413Z,15.10
2018-06-12T00:29:18.893Z,19.27
2018-06-12T00:31:46.263Z,14.90
2018-06-12T00:34:13.917Z,17.37
2018-06-12T00:36:41.965Z,19.10
2018-06-12T00:39:09.445Z,17.03
2018-06-12T00:41:36.874Z,13.33
2018-06-12T00:44:04.368Z,17.23
2018-06-12T00:46:31.788Z,16.13
2018-06-12T00:48:59.509Z,16.53
2018-06-12T00:51:27.822Z,15.80
2018-06-12T00:53:55.207Z,16.70
2018-06-12T00:56:33.982Z,16.17
2018-06-12T00:59:01.448Z,16.27
2018-06-12T01:01:28.837Z,16.40
2018-06-12T01:03:56.244Z,16.40
2018-06-12T01:06:23.661Z,17.13
2018-06-12T01:08:51.113Z,16.03
2018-06-12T01:11:18.748Z,17.87
2018-06-12T01:13:46.213Z,15.97
2018-06-12T01:16:13.790Z,16.53
2018-06-12T01:18:41.441Z,16.87
2018-06-12T01:21:08.984Z,15.90
2018-06-12T01:23:36.417Z,16.47
2018-06-12T01:26:03.970Z,16.43
2018-06-12T01:28:31.750Z,16.13
2018-06-12T01:30:59.261Z,16.60
2018-06-12T01:33:26.717Z,16.43
2018-06-12T01:35:54.163Z,17.10
2018-06-12T01:38:21.668Z,12.77
2018-06-12T01:40:49.038Z,16.87
2018-06-12T01:43:16.429Z,12.97
2018-06-12T01:45:43.831Z,16.47
2018-06-12T01:48:11.408Z,13.40
2018-06-12T01:50:38.873Z,16.53
2018-06-12T01:53:06.317Z,14.53
2018-06-12T01:55:33.989Z,16.77
2018-06-12T01:58:01.450Z,16.87
2018-06-12T02:00:28.872Z,13.43
2018-06-12T02:02:56.543Z,17.23
2018-06-12T02:05:23.921Z,17.13
2018-06-12T02:07:51.669Z,16.80
2018-06-12T02:10:19.266Z,14.33
2018-06-12T02:12:46.663Z,16.93
2018-06-12T02:15:14.071Z,16.03
2018-06-12T02:17:41.518Z,17.17
2018-06-12T02:20:08.970Z,15.97
2018-06-12T02:22:36.538Z,16.27
2018-06-12T02:25:04.513Z,16.03
2018-06-12T02:27:32.125Z,15.57
2018-06-12T02:30:00.113Z,15.70
2018-06-12T02:32:27.604Z,15.90
2018-06-12T02:34:55.362Z,15.80
2018-06-12T02:37:22.797Z,15.93
2018-06-12T02:39:50.312Z,13.20
2018-06-12T02:42:17.674Z,16.63
2018-06-12T02:44:45.173Z,13.33
2018-06-12T02:47:12.733Z,14.77
2018-06-12T02:49:40.424Z,12.57
2018-06-12T02:52:07.869Z,14.27
2018-06-12T02:54:35.250Z,11.03
2018-06-12T02:57:02.978Z,14.40
2018-06-12T02:59:30.477Z,11.73
2018-06-12T03:02:00.066Z,13.73
2018-06-12T03:04:28.022Z,13.70
2018-06-12T03:06:55.509Z,13.03
2018-06-12T03:09:22.893Z,11.07
2018-06-12T03:11:50.381Z,13.33
2018-06-12T03:14:18.033Z,12.60
2018-06-12T03:16:45.612Z,12.97
2018-06-12T03:19:13.094Z,12.27
2018-06-12T03:21:40.467Z,10.90
2018-06-12T03:24:08.100Z,9.90
2018-06-12T03:26:35.555Z,10.17
2018-06-12T03:29:02.963Z,12.10
2018-06-12T03:31:30.442Z,9.10
2018-06-12T03:33:59.309Z,12.77
2018-06-12T03:36:26.861Z,11.10
2018-06-12T03:38:55.116Z,12.47
2018-06-12T03:41:22.629Z,13.70
2018-06-12T03:43:50.205Z,13.63
2018-06-12T03:46:17.863Z,10.07
2018-06-12T03:48:45.291Z,13.50
2018-06-12T03:51:12.751Z,12.13
2018-06-12T03:53:40.160Z,8.90
2018-06-12T03:56:07.628Z,10.90
2018-06-12T03:58:35.031Z,7.97
2018-06-12T04:01:02.585Z,9.87
2018-06-12T04:03:30.056Z,8.43
2018-06-12T04:05:57.415Z,10.80
2018-06-12T04:08:24.984Z,9.57
2018-06-12T04:10:52.389Z,10.90
2018-06-12T04:13:20.483Z,7.80
2018-06-12T04:15:48.088Z,10.47
2018-06-12T04:18:15.521Z,8.30
2018-06-12T04:20:42.936Z,8.43
2018-06-12T04:23:10.442Z,10.50
2018-06-12T04:25:37.833Z,10.53
2018-06-12T04:28:05.307Z,10.60
2018-06-12T04:30:32.795Z,8.10
2018-06-12T04:33:00.556Z,10.30
2018-06-12T04:35:28.010Z,10.20
2018-06-12T04:37:55.727Z,9.77
2018-06-12T04:40:23.239Z,10.10
2018-06-12T04:42:51.062Z,8.50
2018-06-12T04:45:18.599Z,7.53
2018-06-12T04:47:46.000Z,10.10
2018-06-12T04:50:14.253Z,7.73
2018-06-12T04:52:41.657Z,7.87
2018-06-12T04:55:09.066Z,9.33
2018-06-12T04:57:36.589Z,8.83
2018-06-12T05:00:04.113Z,8.30
2018-06-12T05:02:31.809Z,7.83
2018-06-12T05:04:59.557Z,7.90
2018-06-12T05:07:26.953Z,7.67
2018-06-12T05:09:54.397Z,6.93
2018-06-12T05:12:21.793Z,8.90
2018-06-12T05:14:49.205Z,6.73
2018-06-12T05:17:16.657Z,7.77
2018-06-12T05:19:44.154Z,8.40
2018-06-12T05:22:11.533Z,6.00
2018-06-12T05:24:38.905Z,6.00
2018-06-12T05:27:06.286Z,7.43
2018-06-12T05:29:34.154Z,6.17
2018-06-12T05:32:01.774Z,6.93
2018-06-12T05:34:29.300Z,7.67
2018-06-12T05:36:56.922Z,5.77
2018-06-12T05:39:24.785Z,5.57
2018-06-12T05:41:52.371Z,5.60
2018-06-12T05:44:20.222Z,7.53
2018-06-12T05:46:47.652Z,5.07
2018-06-12T05:49:15.116Z,5.10
2018-06-12T05:51:42.800Z,5.30
2018-06-12T05:54:10.482Z,5.03
2018-06-12T05:56:38.493Z,5.90
2018-06-12T05:59:05.892Z,6.50
2018-06-12T06:01:33.291Z,6.20
2018-06-12T06:04:00.798Z,5.53
2018-06-12T06:06:28.353Z,6.60
2018-06-12T06:08:55.883Z,6.07
2018-06-12T06:11:23.272Z,6.27
2018-06-12T06:13:50.892Z,6.40
2018-06-12T06:16:18.409Z,6.53
2018-06-12T06:18:45.866Z,5.97
2018-06-12T06:21:13.235Z,5.80
2018-06-12T06:23:40.932Z,6.53
2018-06-12T06:26:08.512Z,5.53
2018-06-12T06:28:36.191Z,6.00
2018-06-12T06:31:03.662Z,6.00
2018-06-12T06:33:31.069Z,7.80
2018-06-12T06:35:58.568Z,6.73
2018-06-12T06:38:26.118Z,6.47
2018-06-12T06:40:53.773Z,6.60
2018-06-12T06:43:21.221Z,7.10
2018-06-12T06:45:48.897Z,7.03
2018-06-12T06:48:16.414Z,7.50
2018-06-12T06:50:43.879Z,6.70
2018-06-12T06:53:11.292Z,6.43
2018-06-12T06:55:38.698Z,6.77
2018-06-12T06:58:06.068Z,7.00
2018-06-12T07:00:33.477Z,7.47
2018-06-12T07:03:00.872Z,6.80
2018-06-12T07:05:28.357Z,7.23
2018-06-12T07:07:56.032Z,7.63
2018-06-12T07:10:23.564Z,7.73
2018-06-12T07:12:51.058Z,7.50
2018-06-12T07:15:19.276Z,8.17
2018-06-12T07:17:46.691Z,7.50
2018-06-12T07:20:24.388Z,7.10
2018-06-12T07:22:51.961Z,7.87
2018-06-12T07:25:20.073Z,7.83
2018-06-12T07:27:47.503Z,7.23
2018-06-12T07:30:14.896Z,7.23
2018-06-12T07:32:42.337Z,7.20
2018-06-12T07:35:09.801Z,6.63
2018-06-12T07:37:37.427Z,7.27
2018-06-12T07:40:04.815Z,6.90
2018-06-12T07:42:32.392Z,6.57
2018-06-12T07:45:00.065Z,7.00
2018-06-12T07:47:27.817Z,6.57
2018-06-12T07:49:55.176Z,6.47
2018-06-12T07:52:22.677Z,6.87
2018-06-12T07:54:50.105Z,5.97
2018-06-12T07:57:17.532Z,6.73
2018-06-12T07:59:44.902Z,7.17
2018-06-12T08:02:12.330Z,7.53
2018-06-12T08:04:39.727Z,7.53
2018-06-12T08:07:07.161Z,7.93
2018-06-12T08:09:34.917Z,8.03
2018-06-12T08:12:02.551Z,9.30
2018-06-12T08:14:29.994Z,9.27
2018-06-12T08:16:57.882Z,8.30
2018-06-12T08:19:25.310Z,8.30
2018-06-12T08:21:53.537Z,9.07
2018-06-12T08:24:21.118Z,8.30
2018-06-12T08:26:48.565Z,8.33
2018-06-12T08:29:16.678Z,8.20
2018-06-12T08:31:44.202Z,8.97
2018-06-12T08:34:11.889Z,8.90
2018-06-12T08:36:39.463Z,8.17
2018-06-12T08:39:07.698Z,8.87
2018-06-12T08:41:35.208Z,8.80
2018-06-12T08:44:03.165Z,8.70
2018-06-12T08:46:30.776Z,8.57
2018-06-12T08:48:58.188Z,9.07
2018-06-12T08:51:25.616Z,8.40
2018-06-12T08:53:53.125Z,8.97
2018-06-12T08:56:20.645Z,8.97
2018-06-12T08:58:48.249Z,9.37
2018-06-12T09:01:15.744Z,9.20
2018-06-12T09:03:43.206Z,8.70
2018-06-12T09:06:10.681Z,9.00
2018-06-12T09:08:38.111Z,9.03
2018-06-12T09:11:05.641Z,8.33
2018-06-12T09:13:33.066Z,8.60
2018-06-12T09:16:00.613Z,8.40
2018-06-12T09:18:28.079Z,8.60
2018-06-12T09:20:55.588Z,9.70
2018-06-12T09:23:23.244Z,9.27
2018-06-12T09:25:50.727Z,9.40
2018-06-12T09:28:18.238Z,9.33
2018-06-12T09:30:45.717Z,9.00
2018-06-12T09:33:13.197Z,9.17
2018-06-12T09:35:40.659Z,9.40
2018-06-12T09:38:08.098Z,8.00
2018-06-12T09:40:36.254Z,8.77
2018-06-12T09:43:04.977Z,8.80
2018-06-12T09:45:32.486Z,8.67
2018-06-12T09:47:59.979Z,9.13
2018-06-12T09:50:28.247Z,9.10
2018-06-12T09:52:56.494Z,8.87
2018-06-12T09:55:24.585Z,9.37
2018-06-12T09:57:52.051Z,9.07
2018-06-12T10:01:23.305Z,8.07
2018-06-12T10:03:51.985Z,7.43
2018-06-12T10:06:19.417Z,8.40
2018-06-12T10:08:46.906Z,7.83
2018-06-12T10:11:14.364Z,7.50
2018-06-12T10:13:41.876Z,6.90
2018-06-12T10:16:09.391Z,6.43
2018-06-12T10:18:36.928Z,5.80
2018-06-12T10:21:04.549Z,5.63
2018-06-12T10:23:32.061Z,5.10
2018-06-12T10:25:59.519Z,4.63
2018-06-12T10:28:26.950Z,4.43
2018-06-12T10:30:54.574Z,4.47
2018-06-12T10:33:22.006Z,5.10
2018-06-12T10:35:49.462Z,4.23
2018-06-12T10:38:16.973Z,4.80
2018-06-12T10:40:44.503Z,4.63
2018-06-12T10:43:11.924Z,4.70
2018-06-12T10:45:39.446Z,4.67
2018-06-12T10:48:06.917Z,5.20
2018-06-12T10:50:34.368Z,5.10
2018-06-12T10:53:01.932Z,5.00
2018-06-12T10:55:29.374Z,5.00
2018-06-12T10:57:56.865Z,4.87
2018-06-12T11:00:24.305Z,5.23
2018-06-12T11:02:51.733Z,5.23
2018-06-12T11:05:19.173Z,5.27
2018-06-12T11:07:46.606Z,5.43
2018-06-12T11:10:14.020Z,5.77
2018-06-12T11:12:41.425Z,7.07
2018-06-12T11:15:09.028Z,5.77
2018-06-12T11:17:36.574Z,5.50
2018-06-12T11:20:04.159Z,5.53
2018-06-12T11:22:31.614Z,5.57
2018-06-12T11:24:59.038Z,5.57
2018-06-12T11:27:26.631Z,5.83
2018-06-12T11:29:54.133Z,5.80
2018-06-12T11:32:22.113Z,5.77
2018-06-12T11:34:49.622Z,5.87
2018-06-12T11:37:17.083Z,5.80
2018-06-12T11:39:44.500Z,6.43
2018-06-12T11:42:12.114Z,5.67
2018-06-12T11:44:39.572Z,5.67
2018-06-12T11:47:06.970Z,5.57
2018-06-12T11:49:34.339Z,5.60
2018-06-12T11:52:01.811Z,5.33
2018-06-12T11:54:29.322Z,5.50
2018-06-12T11:56:56.792Z,5.20
2018-06-12T11:59:24.861Z,4.90
2018-06-12T12:01:52.325Z,5.07
2018-06-12T12:04:19.809Z,4.43
2018-06-12T12:06:47.185Z,4.77
2018-06-12T12:09:14.607Z,4.53
2018-06-12T12:11:41.983Z,4.07
2018-06-12T12:14:09.428Z,3.83
2018-06-12T12:16:36.819Z,3.63
2018-06-12T12:19:04.348Z,4.13
2018-06-12T12:21:31.797Z,3.80
2018-06-12T12:23:59.210Z,3.60
2018-06-12T12:26:26.616Z,4.17
2018-06-12T12:28:54.140Z,4.43
2018-06-12T12:31:21.609Z,4.13
2018-06-12T12:33:49.024Z,4.37
2018-06-12T12:36:16.448Z,4.83
2018-06-12T12:38:44.424Z,5.50
2018-06-12T12:41:11.864Z,5.40
2018-06-12T12:43:39.274Z,5.07
2018-06-12T12:46:06.739Z,4.83
2018-06-12T12:48:34.349Z,5.03
2018-06-12T12:51:01.874Z,5.33
2018-06-12T12:53:29.934Z,5.17
2018-06-12T12:55:57.421Z,5.07
2018-06-12T12:58:24.896Z,5.50
2018-06-12T13:00:52.389Z,5.00
2018-06-12T13:03:19.893Z,5.07
2018-06-12T13:05:47.639Z,5.33
2018-06-12T13:08:15.176Z,4.97
2018-06-12T13:10:42.703Z,5.80
2018-06-12T13:13:10.114Z,5.57
2018-06-12T13:15:37.525Z,5.27
2018-06-12T13:18:05.090Z,4.80
2018-06-12T13:20:32.620Z,4.97
2018-06-12T13:23:00.032Z,4.10
2018-06-12T13:25:27.540Z,3.83
2018-06-12T13:27:54.918Z,4.00
2018-06-12T13:30:22.373Z,4.00
2018-06-12T13:32:49.836Z,3.70
2018-06-12T13:35:17.303Z,3.60
2018-06-12T13:37:44.852Z,4.10
2018-06-12T13:40:12.222Z,3.30
2018-06-12T13:42:39.571Z,3.70
2018-06-12T13:45:07.037Z,3.57
2018-06-12T13:47:34.574Z,3.40
2018-06-12T13:50:02.110Z,3.67
2018-06-12T13:52:29.612Z,3.47
2018-06-12T13:54:57.165Z,3.80
2018-06-12T13:57:24.612Z,3.63
2018-06-12T13:59:52.079Z,3.90
2018-06-12T14:02:19.563Z,3.33
2018-06-12T14:04:47.870Z,3.77
2018-06-12T14:07:15.377Z,3.60
2018-06-12T14:09:42.817Z,3.67
2018-06-12T14:12:10.290Z,3.80
2018-06-12T14:14:38.690Z,3.80
2018-06-12T14:17:06.964Z,3.63
2018-06-12T14:19:34.420Z,3.37
2018-06-12T14:22:01.859Z,3.30
2018-06-12T14:24:29.291Z,3.73
2018-06-12T14:26:56.710Z,3.00
2018-06-12T14:29:24.170Z,3.07
2018-06-12T14:31:51.639Z,3.43
2018-06-12T14:34:19.031Z,2.70
2018-06-12T14:36:47.217Z,2.67
2018-06-12T14:39:14.697Z,2.63
2018-06-12T14:41:42.205Z,3.10
2018-06-12T14:44:09.617Z,2.53
2018-06-12T14:46:37.176Z,2.87
2018-06-12T14:49:04.640Z,2.43
2018-06-12T14:51:32.150Z,2.40
2018-06-12T14:53:59.631Z,2.40
2018-06-12T14:56:27.062Z,2.47
2018-06-12T14:58:55.024Z,2.20
2018-06-12T15:01:22.509Z,2.30
2018-06-12T15:03:49.972Z,2.40
2018-06-12T15:06:17.550Z,2.40
2018-06-12T15:08:45.028Z,2.20
2018-06-12T15:11:12.595Z,2.20
2018-06-12T15:13:40.066Z,2.37
2018-06-12T15:16:07.563Z,2.40
2018-06-12T15:18:35.084Z,2.30
2018-06-12T15:21:02.649Z,2.33
2018-06-12T15:23:30.911Z,2.23
2018-06-12T15:25:58.396Z,2.47
2018-06-12T15:28:26.443Z,2.03
2018-06-12T15:30:53.985Z,1.90
2018-06-12T15:33:21.572Z,2.33
2018-06-12T15:35:49.005Z,2.33
2018-06-12T15:38:16.588Z,2.00
2018-06-12T15:40:44.129Z,1.93
2018-06-12T15:43:11.705Z,2.07
2018-06-12T15:45:39.242Z,2.10
2018-06-12T15:48:06.750Z,2.20
2018-06-12T15:50:34.229Z,2.00
2018-06-12T15:53:01.716Z,2.00
2018-06-12T15:55:29.229Z,2.00
2018-06-12T15:57:56.942Z,2.10
2018-06-12T16:00:24.541Z,2.00
2018-06-12T16:02:52.166Z,1.60
2018-06-12T16:05:19.762Z,1.70
2018-06-12T16:07:47.241Z,1.90
2018-06-12T16:10:14.817Z,1.70
2018-06-12T16:12:43.039Z,1.73
2018-06-12T16:15:11.145Z,1.60
2018-06-12T16:17:38.661Z,1.57
2018-06-12T16:20:06.161Z,1.70
2018-06-12T16:22:34.314Z,1.57
2018-06-12T16:25:01.807Z,1.57
2018-06-12T16:27:29.422Z,1.30
2018-06-12T16:29:56.879Z,1.70
2018-06-12T16:32:24.922Z,1.57
2018-06-12T16:34:52.492Z,1.80
2018-06-12T16:37:19.967Z,2.33
2018-06-12T16:39:48.037Z,1.70
2018-06-12T16:42:15.513Z,1.50
2018-06-12T16:44:42.955Z,1.60
2018-06-12T16:47:10.430Z,1.73
2018-06-12T16:49:38.069Z,2.00
2018-06-12T16:52:05.591Z,1.60
2018-06-12T16:54:33.221Z,1.60
2018-06-12T16:57:00.746Z,1.70
2018-06-12T16:59:28.188Z,1.67
2018-06-12T17:01:55.719Z,1.27
2018-06-12T17:04:23.272Z,1.60
2018-06-12T17:06:50.810Z,1.70
2018-06-12T17:09:18.227Z,1.60
2018-06-12T17:11:45.657Z,1.50
2018-06-12T17:14:13.267Z,1.60
2018-06-12T17:16:40.770Z,1.60
2018-06-12T17:19:08.261Z,1.50
2018-06-12T17:21:35.781Z,1.60
2018-06-12T17:24:03.337Z,1.60
2018-06-12T17:26:30.870Z,1.47
2018-06-12T17:28:58.297Z,1.53
2018-06-12T17:31:26.550Z,2.10
2018-06-12T17:33:54.150Z,1.73
2018-06-12T17:36:21.637Z,1.80
2018-06-12T17:38:50.507Z,1.60
2018-06-12T17:41:18.573Z,1.63
2018-06-12T17:43:46.814Z,1.70
2018-06-12T17:46:14.205Z,1.83
2018-06-12T17:48:41.653Z,2.10
2018-06-12T17:51:09.218Z,2.07
2018-06-12T17:53:36.735Z,1.63
2018-06-12T17:56:04.267Z,1.57
2018-06-12T17:58:31.683Z,1.80
2018-06-12T18:00:59.210Z,1.63
2018-06-12T18:03:27.259Z,1.67
2018-06-12T18:05:54.773Z,1.77
2018-06-12T18:08:22.427Z,1.63
2018-06-12T18:10:49.869Z,1.53
2018-06-12T18:13:18.119Z,1.50
2018-06-12T18:15:46.968Z,1.90
2018-06-12T18:18:14.452Z,1.70
2018-06-12T18:20:45.716Z,1.80
2018-06-12T18:23:13.137Z,1.70
2018-06-12T18:25:40.694Z,1.90
2018-06-12T18:28:08.169Z,1.73
2018-06-12T18:30:35.623Z,1.67
2018-06-12T18:33:04.049Z,2.00
2018-06-12T18:35:31.537Z,2.13
2018-06-12T18:37:59.034Z,1.97
2018-06-12T18:40:26.631Z,1.80
2018-06-12T18:42:54.118Z,1.97
2018-06-12T18:45:21.633Z,1.40
2018-06-12T18:47:49.097Z,1.90
2018-06-12T18:50:16.709Z,2.00
2018-06-12T18:52:44.108Z,1.60
2018-06-12T18:55:11.554Z,1.90
2018-06-12T18:57:39.041Z,1.60
2018-06-12T19:00:06.813Z,1.70
2018-06-12T19:02:34.286Z,1.73
2018-06-12T19:05:01.818Z,2.00
2018-06-12T19:07:29.173Z,2.10
2018-06-12T19:09:56.587Z,2.17
2018-06-12T19:12:24.130Z,1.87
2018-06-12T19:14:52.530Z,2.17
2018-06-12T19:17:19.999Z,2.00
2018-06-12T19:19:47.468Z,2.23
2018-06-12T19:22:14.934Z,1.90
2018-06-12T19:24:42.414Z,1.70
2018-06-12T19:27:09.931Z,1.90
2018-06-12T19:29:38.690Z,1.83
2018-06-12T19:32:06.145Z,1.70
2018-06-12T19:34:33.654Z,1.40
2018-06-12T19:37:01.044Z,2.10
2018-06-12T19:39:28.560Z,2.10
2018-06-12T19:41:56.216Z,2.03
2018-06-12T19:44:24.529Z,2.40
2018-06-12T19:46:52.021Z,1.70
2018-06-12T19:49:19.504Z,2.10
2018-06-12T19:51:46.910Z,1.97
2018-06-12T19:54:14.471Z,1.80
2018-06-12T19:56:41.949Z,1.73
2018-06-12T19:59:09.359Z,1.53
2018-06-12T20:01:36.836Z,2.20
2018-06-12T20:04:04.324Z,1.80
2018-06-12T20:06:31.848Z,2.00
2018-06-12T20:08:59.319Z,1.70
2018-06-12T20:11:26.699Z,1.47
2018-06-12T20:13:54.089Z,2.00
2018-06-12T20:16:21.495Z,1.70
2018-06-12T20:18:48.969Z,2.10
2018-06-12T20:21:16.444Z,2.13
2018-06-12T20:23:44.318Z,1.90
2018-06-12T20:26:11.925Z,1.90
2018-06-12T20:28:39.945Z,1.80
2018-06-12T20:31:07.355Z,1.70
2018-06-12T20:33:34.753Z,2.20
2018-06-12T20:36:02.145Z,2.60
2018-06-12T20:38:29.536Z,2.50
2018-06-12T20:40:56.930Z,2.47
2018-06-12T20:43:24.892Z,2.03
2018-06-12T20:45:52.390Z,2.30
2018-06-12T20:48:19.796Z,2.73
2018-06-12T20:50:47.228Z,2.00
2018-06-12T20:53:14.684Z,2.10
2018-06-12T20:55:42.088Z,2.10
2018-06-12T20:58:10.003Z,2.07
2018-06-12T21:00:37.545Z,1.97
2018-06-12T21:03:05.016Z,2.03
2018-06-12T21:05:32.408Z,2.10
2018-06-12T21:08:01.196Z,2.43
2018-06-12T21:10:28.627Z,2.10
2018-06-12T21:12:56.105Z,2.60
2018-06-12T21:15:23.496Z,2.27
2018-06-12T21:17:50.909Z,2.17
2018-06-12T21:20:18.305Z,2.27
2018-06-12T21:22:45.898Z,2.57
2018-06-12T21:25:13.500Z,2.40
2018-06-12T21:27:41.043Z,2.77
2018-06-12T21:30:08.784Z,2.77
2018-06-12T21:32:36.542Z,2.80
2018-06-12T21:35:03.930Z,3.10
2018-06-12T21:37:31.494Z,2.50
2018-06-12T21:39:58.996Z,2.83
2018-06-12T21:42:26.409Z,2.70
2018-06-12T21:44:53.833Z,2.97
2018-06-12T21:47:21.320Z,2.20
2018-06-12T21:49:48.753Z,3.10
2018-06-12T21:52:16.152Z,2.17
2018-06-12T21:54:43.573Z,2.43
2018-06-12T21:57:11.064Z,2.77
2018-06-12T21:59:38.531Z,2.83
2018-06-12T22:02:06.184Z,2.37
2018-06-12T22:04:33.680Z,2.93
2018-06-12T22:07:01.054Z,2.40
2018-06-12T22:09:28.482Z,3.00
2018-06-12T22:11:55.884Z,2.37
2018-06-12T22:14:27.502Z,3.23
2018-06-12T22:16:55.326Z,3.17
2018-06-12T22:19:22.813Z,3.10
2018-06-12T22:21:50.220Z,2.80
2018-06-12T22:24:17.814Z,3.20
2018-06-12T22:26:45.364Z,3.27
2018-06-12T22:29:12.768Z,3.10
2018-06-12T22:31:40.219Z,3.17
2018-06-12T22:34:08.465Z,3.73
2018-06-12T22:36:36.557Z,3.50
2018-06-12T22:39:06.717Z,3.70
2018-06-12T22:41:34.203Z,2.83
2018-06-12T22:44:02.471Z,3.47
2018-06-12T22:46:30.008Z,2.87
2018-06-12T22:48:57.453Z,3.20
2018-06-12T22:51:25.344Z,3.60
2018-06-12T22:53:52.759Z,3.40
2018-06-12T22:56:20.854Z,3.90
2018-06-12T22:58:48.296Z,3.63
2018-06-12T23:01:15.758Z,3.73
2018-06-12T23:03:43.169Z,3.80
2018-06-12T23:06:10.674Z,3.43
2018-06-12T23:08:38.084Z,3.40
2018-06-12T23:11:05.593Z,3.10
2018-06-12T23:13:33.046Z,3.50
2018-06-12T23:16:00.451Z,2.80
2018-06-12T23:18:27.989Z,3.70
2018-06-12T23:22:03.612Z,3.67
2018-06-12T23:24:31.041Z,3.57
2018-06-12T23:26:58.466Z,3.30
2018-06-12T23:29:26.472Z,4.07
2018-06-12T23:31:53.931Z,3.17
2018-06-12T23:34:21.344Z,3.33
2018-06-12T23:36:48.867Z,3.80
2018-06-12T23:39:16.494Z,3.10
2018-06-12T23:41:44.175Z,3.07
2018-06-12T23:44:11.589Z,3.33
2018-06-12T23:46:39.018Z,2.57
2018-06-12T23:49:06.604Z,2.93
2018-06-12T23:51:34.055Z,2.30
2018-06-12T23:54:01.483Z,2.20
2018-06-12T23:56:29.044Z,2.90
2018-06-12T23:58:56.636Z,2.40
